sensor_id;sensor_type;location;lat;lon;timestamp;pressure;altitude;pressure_sealevel;temperature;humidity
75938;BME280;64615;32.062;34.834;2024-03-07T00:00:34;101028.13;;;22.80;50.92
75938;BME280;64615;32.062;34.834;2024-03-07T00:03:00;101029.44;;;22.77;50.91
75938;BME280;64615;32.062;34.834;2024-03-07T00:05:26;101022.63;;;22.75;50.96
75938;BME280;64615;32.062;34.834;2024-03-07T00:07:55;101027.25;;;22.74;51.05
75938;BME280;64615;32.062;34.834;2024-03-07T00:10:21;101028.06;;;22.75;50.84
75938;BME280;64615;32.062;34.834;2024-03-07T00:12:48;101020.16;;;22.73;50.90
75938;BME280;64615;32.062;34.834;2024-03-07T00:15:14;101035.63;;;22.73;50.88
75938;BME280;64615;32.062;34.834;2024-03-07T00:17:41;101019.09;;;22.74;50.86
75938;BME280;64615;32.062;34.834;2024-03-07T00:20:07;101023.13;;;22.72;50.65
75938;BME280;64615;32.062;34.834;2024-03-07T00:22:44;101029.38;;;22.72;50.78
75938;BME280;64615;32.062;34.834;2024-03-07T00:25:10;101023.13;;;22.72;50.73
75938;BME280;64615;32.062;34.834;2024-03-07T00:27:37;101035.06;;;22.71;50.69
75938;BME280;64615;32.062;34.834;2024-03-07T00:30:04;101027.47;;;22.73;50.86
75938;BME280;64615;32.062;34.834;2024-03-07T00:32:30;101029.66;;;22.71;50.89
75938;BME280;64615;32.062;34.834;2024-03-07T00:35:01;101038.63;;;22.71;50.78
75938;BME280;64615;32.062;34.834;2024-03-07T00:37:28;101028.31;;;22.73;50.88
75938;BME280;64615;32.062;34.834;2024-03-07T00:39:54;101022.63;;;22.75;50.78
75938;BME280;64615;32.062;34.834;2024-03-07T00:42:20;101029.97;;;22.74;50.57
75938;BME280;64615;32.062;34.834;2024-03-07T00:44:47;101028.06;;;22.75;50.57
75938;BME280;64615;32.062;34.834;2024-03-07T00:47:14;101026.94;;;22.71;50.77
75938;BME280;64615;32.062;34.834;2024-03-07T00:49:40;101033.31;;;22.82;52.63
75938;BME280;64615;32.062;34.834;2024-03-07T00:52:06;101040.63;;;22.81;53.29
75938;BME280;64615;32.062;34.834;2024-03-07T00:54:31;101039.53;;;22.82;52.55
75938;BME280;64615;32.062;34.834;2024-03-07T00:56:57;101037.56;;;22.77;52.15
75938;BME280;64615;32.062;34.834;2024-03-07T00:59:22;101034.56;;;22.74;52.41
75938;BME280;64615;32.062;34.834;2024-03-07T01:01:48;101030.47;;;22.71;52.33
75938;BME280;64615;32.062;34.834;2024-03-07T01:04:14;101030.94;;;22.68;52.36
75938;BME280;64615;32.062;34.834;2024-03-07T01:06:40;101032.81;;;22.68;52.43
75938;BME280;64615;32.062;34.834;2024-03-07T01:09:06;101037.69;;;22.66;52.38
75938;BME280;64615;32.062;34.834;2024-03-07T01:11:41;101027.31;;;22.63;52.33
75938;BME280;64615;32.062;34.834;2024-03-07T01:14:07;101036.53;;;22.62;52.19
75938;BME280;64615;32.062;34.834;2024-03-07T01:16:33;101032.19;;;22.61;52.14
75938;BME280;64615;32.062;34.834;2024-03-07T01:19:00;101031.63;;;22.59;52.26
75938;BME280;64615;32.062;34.834;2024-03-07T01:21:26;101034.31;;;22.59;52.17
75938;BME280;64615;32.062;34.834;2024-03-07T01:23:51;101031.84;;;22.57;51.96
75938;BME280;64615;32.062;34.834;2024-03-07T01:26:17;101028.84;;;22.54;52.04
75938;BME280;64615;32.062;34.834;2024-03-07T01:28:43;101034.25;;;22.54;52.16
75938;BME280;64615;32.062;34.834;2024-03-07T01:31:08;101031.78;;;22.52;52.25
75938;BME280;64615;32.062;34.834;2024-03-07T01:33:36;101037.44;;;22.51;52.14
75938;BME280;64615;32.062;34.834;2024-03-07T01:36:01;101039.09;;;22.52;52.14
75938;BME280;64615;32.062;34.834;2024-03-07T01:38:27;101032.84;;;22.51;52.11
75938;BME280;64615;32.062;34.834;2024-03-07T01:40:53;101040.16;;;22.51;52.07
75938;BME280;64615;32.062;34.834;2024-03-07T01:43:20;101037.72;;;22.49;52.19
75938;BME280;64615;32.062;34.834;2024-03-07T01:45:46;101030.41;;;22.50;52.03
75938;BME280;64615;32.062;34.834;2024-03-07T01:48:19;101040.44;;;22.49;52.01
75938;BME280;64615;32.062;34.834;2024-03-07T01:50:48;101040.44;;;22.49;52.07
75938;BME280;64615;32.062;34.834;2024-03-07T01:53:14;101046.94;;;22.48;51.96
75938;BME280;64615;32.062;34.834;2024-03-07T01:55:40;101042.09;;;22.50;52.10
75938;BME280;64615;32.062;34.834;2024-03-07T01:58:07;101042.09;;;22.50;52.12
75938;BME280;64615;32.062;34.834;2024-03-07T02:00:34;101034.25;;;22.54;52.04
75938;BME280;64615;32.062;34.834;2024-03-07T02:02:59;101040.81;;;22.58;51.95
75938;BME280;64615;32.062;34.834;2024-03-07T02:05:25;101044.94;;;22.60;51.83
75938;BME280;64615;32.062;34.834;2024-03-07T02:07:51;101044.66;;;22.62;51.81
75938;BME280;64615;32.062;34.834;2024-03-07T02:10:16;101047.97;;;22.64;51.95
75938;BME280;64615;32.062;34.834;2024-03-07T02:12:43;101049.03;;;22.63;51.68
75938;BME280;64615;32.062;34.834;2024-03-07T02:15:09;101050.91;;;22.62;51.91
75938;BME280;64615;32.062;34.834;2024-03-07T02:17:35;101054.69;;;22.61;51.91
75938;BME280;64615;32.062;34.834;2024-03-07T02:20:01;101052.81;;;22.62;51.92
75938;BME280;64615;32.062;34.834;2024-03-07T02:22:29;101054.47;;;22.63;51.94
75938;BME280;64615;32.062;34.834;2024-03-07T02:24:55;101055.53;;;22.62;51.85
75938;BME280;64615;32.062;34.834;2024-03-07T02:27:20;101051.66;;;22.58;51.79
75938;BME280;64615;32.062;34.834;2024-03-07T02:29:46;101047.59;;;22.55;51.88
75938;BME280;64615;32.062;34.834;2024-03-07T02:32:12;101054.31;;;22.53;51.96
75938;BME280;64615;32.062;34.834;2024-03-07T02:34:38;101054.56;;;22.51;51.86
75938;BME280;64615;32.062;34.834;2024-03-07T02:37:04;101063.78;;;22.50;51.88
75938;BME280;64615;32.062;34.834;2024-03-07T02:39:29;101060.25;;;22.50;51.93
75938;BME280;64615;32.062;34.834;2024-03-07T02:41:55;101058.03;;;22.47;51.96
75938;BME280;64615;32.062;34.834;2024-03-07T02:44:21;101058.03;;;22.47;51.88
75938;BME280;64615;32.062;34.834;2024-03-07T02:46:47;101058.03;;;22.47;51.97
75938;BME280;64615;32.062;34.834;2024-03-07T02:49:15;101058.28;;;22.45;52.01
75938;BME280;64615;32.062;34.834;2024-03-07T02:51:41;101057.47;;;22.45;51.83
75938;BME280;64615;32.062;34.834;2024-03-07T02:54:07;101066.44;;;22.45;51.86
75938;BME280;64615;32.062;34.834;2024-03-07T02:56:34;101058.53;;;22.44;51.76
75938;BME280;64615;32.062;34.834;2024-03-07T02:59:00;101058.53;;;22.44;51.85
75938;BME280;64615;32.062;34.834;2024-03-07T03:01:26;101063.13;;;22.43;51.72
75938;BME280;64615;32.062;34.834;2024-03-07T03:03:52;101060.41;;;22.43;51.68
75938;BME280;64615;32.062;34.834;2024-03-07T03:06:18;101065.03;;;22.43;51.82
75938;BME280;64615;32.062;34.834;2024-03-07T03:08:48;101066.09;;;22.42;51.80
75938;BME280;64615;32.062;34.834;2024-03-07T03:11:14;101068.78;;;22.42;51.78
75938;BME280;64615;32.062;34.834;2024-03-07T03:13:42;101063.59;;;22.40;51.76
75938;BME280;64615;32.062;34.834;2024-03-07T03:16:09;101067.97;;;22.41;51.76
75938;BME280;64615;32.062;34.834;2024-03-07T03:18:35;101072.56;;;22.40;51.76
75938;BME280;64615;32.062;34.834;2024-03-07T03:21:02;101077.16;;;22.40;51.86
75938;BME280;64615;32.062;34.834;2024-03-07T03:23:31;101075.56;;;22.39;51.71
75938;BME280;64615;32.062;34.834;2024-03-07T03:25:57;101074.22;;;22.42;51.82
75938;BME280;64615;32.062;34.834;2024-03-07T03:28:22;101074.28;;;22.47;51.84
75938;BME280;64615;32.062;34.834;2024-03-07T03:30:49;101080.31;;;22.49;51.67
75938;BME280;64615;32.062;34.834;2024-03-07T03:33:15;101071.94;;;22.50;51.64
75938;BME280;64615;32.062;34.834;2024-03-07T03:35:41;101076.03;;;22.53;51.49
75938;BME280;64615;32.062;34.834;2024-03-07T03:38:07;101078.16;;;22.51;51.56
75938;BME280;64615;32.062;34.834;2024-03-07T03:40:33;101078.16;;;22.51;51.69
75938;BME280;64615;32.062;34.834;2024-03-07T03:43:00;101087.94;;;22.52;51.67
75938;BME280;64615;32.062;34.834;2024-03-07T03:45:26;101085.50;;;22.50;51.61
75938;BME280;64615;32.062;34.834;2024-03-07T03:47:52;101096.06;;;22.52;51.71
75938;BME280;64615;32.062;34.834;2024-03-07T03:50:18;101089.00;;;22.51;51.59
75938;BME280;64615;32.062;34.834;2024-03-07T03:52:44;101103.38;;;22.51;51.64
75938;BME280;64615;32.062;34.834;2024-03-07T03:55:10;101102.56;;;22.51;51.61
75938;BME280;64615;32.062;34.834;2024-03-07T03:57:38;101103.06;;;22.48;51.63
75938;BME280;64615;32.062;34.834;2024-03-07T04:00:05;101106.03;;;22.46;51.60
75938;BME280;64615;32.062;34.834;2024-03-07T04:02:35;101097.34;;;22.44;51.56
75938;BME280;64615;32.062;34.834;2024-03-07T04:05:04;101101.34;;;22.42;51.56
75938;BME280;64615;32.062;34.834;2024-03-07T04:07:30;101099.69;;;22.40;51.65
75938;BME280;64615;32.062;34.834;2024-03-07T04:09:57;101096.75;;;22.42;52.33
75938;BME280;64615;32.062;34.834;2024-03-07T04:12:23;101104.88;;;22.42;52.63
75938;BME280;64615;32.062;34.834;2024-03-07T04:14:51;101110.06;;;22.44;52.62
75938;BME280;64615;32.062;34.834;2024-03-07T04:17:16;101109.25;;;22.43;53.07
75938;BME280;64615;32.062;34.834;2024-03-07T04:19:42;101115.50;;;22.44;52.96
75938;BME280;64615;32.062;34.834;2024-03-07T04:22:09;101104.06;;;22.42;51.91
75938;BME280;64615;32.062;34.834;2024-03-07T04:24:37;101116.56;;;22.43;52.06
75938;BME280;64615;32.062;34.834;2024-03-07T04:27:03;101111.38;;;22.41;52.04
75938;BME280;64615;32.062;34.834;2024-03-07T04:29:33;101112.78;;;22.44;53.00
75938;BME280;64615;32.062;34.834;2024-03-07T04:31:59;101117.97;;;22.45;53.28
75938;BME280;64615;32.062;34.834;2024-03-07T04:34:27;101118.28;;;22.49;52.04
75938;BME280;64615;32.062;34.834;2024-03-07T04:37:00;101119.59;;;22.46;52.63
75938;BME280;64615;32.062;34.834;2024-03-07T04:39:29;101127.72;;;22.46;52.48
75938;BME280;64615;32.062;34.834;2024-03-07T04:42:08;101130.19;;;22.48;53.06
75938;BME280;64615;32.062;34.834;2024-03-07T04:44:35;101132.09;;;22.47;52.97
75938;BME280;64615;32.062;34.834;2024-03-07T04:47:02;101141.28;;;22.46;52.49
75938;BME280;64615;32.062;34.834;2024-03-07T04:49:29;101140.75;;;22.44;52.22
75938;BME280;64615;32.062;34.834;2024-03-07T04:51:56;101139.31;;;22.42;51.62
75938;BME280;64615;32.062;34.834;2024-03-07T04:54:26;101139.69;;;22.45;51.39
75938;BME280;64615;32.062;34.834;2024-03-07T04:56:52;101142.19;;;22.52;51.60
75938;BME280;64615;32.062;34.834;2024-03-07T04:59:19;101138.75;;;22.56;51.47
75938;BME280;64615;32.062;34.834;2024-03-07T05:01:46;101142.53;;;22.55;51.40
75938;BME280;64615;32.062;34.834;2024-03-07T05:04:13;101150.09;;;22.53;52.18
75938;BME280;64615;32.062;34.834;2024-03-07T05:06:39;101149.78;;;22.50;51.91
75938;BME280;64615;32.062;34.834;2024-03-07T05:09:07;101154.38;;;22.49;52.32
75938;BME280;64615;32.062;34.834;2024-03-07T05:11:35;101152.50;;;22.50;52.56
75938;BME280;64615;32.062;34.834;2024-03-07T05:14:01;101157.91;;;22.50;52.52
75938;BME280;64615;32.062;34.834;2024-03-07T05:16:27;101159.16;;;22.59;52.69
75938;BME280;64615;32.062;34.834;2024-03-07T05:18:53;101160.13;;;22.69;52.84
75938;BME280;64615;32.062;34.834;2024-03-07T05:21:20;101159.66;;;22.72;52.58
75938;BME280;64615;32.062;34.834;2024-03-07T05:24:01;101154.28;;;22.77;52.37
75938;BME280;64615;32.062;34.834;2024-03-07T05:26:27;101154.28;;;22.77;52.99
75938;BME280;64615;32.062;34.834;2024-03-07T05:28:53;101158.50;;;22.85;53.64
75938;BME280;64615;32.062;34.834;2024-03-07T05:31:21;101153.44;;;22.94;53.41
75938;BME280;64615;32.062;34.834;2024-03-07T05:33:47;101161.41;;;23.00;54.07
75938;BME280;64615;32.062;34.834;2024-03-07T05:36:13;101164.22;;;23.05;53.66
75938;BME280;64615;32.062;34.834;2024-03-07T05:38:41;101170.97;;;23.24;52.57
75938;BME280;64615;32.062;34.834;2024-03-07T05:41:09;101169.84;;;23.20;52.35
75938;BME280;64615;32.062;34.834;2024-03-07T05:43:36;101169.78;;;23.15;52.20
75938;BME280;64615;32.062;34.834;2024-03-07T05:46:02;101176.84;;;23.16;51.93
75938;BME280;64615;32.062;34.834;2024-03-07T05:48:28;101173.06;;;23.17;51.88
75938;BME280;64615;32.062;34.834;2024-03-07T05:50:54;101176.03;;;23.16;51.45
75938;BME280;64615;32.062;34.834;2024-03-07T05:53:19;101184.19;;;23.16;51.36
75938;BME280;64615;32.062;34.834;2024-03-07T05:55:45;101175.22;;;23.15;51.11
75938;BME280;64615;32.062;34.834;2024-03-07T05:58:11;101179.81;;;23.15;51.23
75938;BME280;64615;32.062;34.834;2024-03-07T06:00:36;101173.00;;;23.12;51.12
75938;BME280;64615;32.062;34.834;2024-03-07T06:03:04;101174.06;;;23.11;51.03
75938;BME280;64615;32.062;34.834;2024-03-07T06:05:30;101177.53;;;23.07;51.01
75938;BME280;64615;32.062;34.834;2024-03-07T06:07:56;101182.94;;;23.23;50.75
75938;BME280;64615;32.062;34.834;2024-03-07T06:10:22;101185.38;;;23.25;50.54
75938;BME280;64615;32.062;34.834;2024-03-07T06:12:52;101190.06;;;23.30;50.37
75938;BME280;64615;32.062;34.834;2024-03-07T06:15:18;101197.72;;;23.33;50.25
75938;BME280;64615;32.062;34.834;2024-03-07T06:17:44;101196.06;;;23.32;50.11
75938;BME280;64615;32.062;34.834;2024-03-07T06:20:14;101208.81;;;23.48;49.70
75938;BME280;64615;32.062;34.834;2024-03-07T06:22:53;101217.91;;;23.58;49.41
75938;BME280;64615;32.062;34.834;2024-03-07T06:25:19;101219.13;;;23.68;49.14
75938;BME280;64615;32.062;34.834;2024-03-07T06:28:06;101222.19;;;23.76;49.08
75938;BME280;64615;32.062;34.834;2024-03-07T06:30:38;101229.34;;;23.82;48.86
75938;BME280;64615;32.062;34.834;2024-03-07T06:33:08;101227.09;;;23.74;48.65
75938;BME280;64615;32.062;34.834;2024-03-07T06:35:34;101230.00;;;23.68;48.77
75938;BME280;64615;32.062;34.834;2024-03-07T06:38:05;101232.81;;;23.56;49.23
75938;BME280;64615;32.062;34.834;2024-03-07T06:40:36;101230.81;;;23.46;49.14
75938;BME280;64615;32.062;34.834;2024-03-07T06:43:02;101229.63;;;23.42;49.21
75938;BME280;64615;32.062;34.834;2024-03-07T06:45:37;101234.00;;;23.43;49.24
75938;BME280;64615;32.062;34.834;2024-03-07T06:48:05;101230.38;;;23.38;49.06
75938;BME280;64615;32.062;34.834;2024-03-07T06:50:33;101225.44;;;23.35;49.35
75938;BME280;64615;32.062;34.834;2024-03-07T06:53:00;101228.09;;;23.30;49.18
75938;BME280;64615;32.062;34.834;2024-03-07T06:55:26;101234.34;;;23.30;49.22
75938;BME280;64615;32.062;34.834;2024-03-07T06:57:52;101244.38;;;23.30;49.16
75938;BME280;64615;32.062;34.834;2024-03-07T07:00:19;101236.75;;;23.27;49.03
75938;BME280;64615;32.062;34.834;2024-03-07T07:02:45;101238.56;;;23.21;49.21
75938;BME280;64615;32.062;34.834;2024-03-07T07:05:12;101226.81;;;23.15;49.41
75938;BME280;64615;32.062;34.834;2024-03-07T07:07:38;101240.91;;;23.12;49.47
75938;BME280;64615;32.062;34.834;2024-03-07T07:10:04;101246.00;;;23.09;49.41
75938;BME280;64615;32.062;34.834;2024-03-07T07:12:33;101240.25;;;23.05;49.49
75938;BME280;64615;32.062;34.834;2024-03-07T07:15:00;101253.22;;;23.03;49.53
75938;BME280;64615;32.062;34.834;2024-03-07T07:17:25;101252.44;;;23.03;49.50
75938;BME280;64615;32.062;34.834;2024-03-07T07:19:54;101251.84;;;23.01;49.47
75938;BME280;64615;32.062;34.834;2024-03-07T07:22:21;101258.09;;;23.01;49.55
75938;BME280;64615;32.062;34.834;2024-03-07T07:24:47;101250.78;;;23.02;49.50
75938;BME280;64615;32.062;34.834;2024-03-07T07:27:12;101254.41;;;23.07;49.09
75938;BME280;64615;32.062;34.834;2024-03-07T07:29:38;101254.13;;;23.09;49.00
75938;BME280;64615;32.062;34.834;2024-03-07T07:32:05;101256.53;;;23.05;48.86
75938;BME280;64615;32.062;34.834;2024-03-07T07:34:30;101264.09;;;23.03;49.01
75938;BME280;64615;32.062;34.834;2024-03-07T07:36:56;101257.88;;;23.03;49.14
75938;BME280;64615;32.062;34.834;2024-03-07T07:39:22;101251.63;;;23.02;49.16
75938;BME280;64615;32.062;34.834;2024-03-07T07:41:48;101254.06;;;23.04;48.88
75938;BME280;64615;32.062;34.834;2024-03-07T07:44:13;101272.00;;;23.05;48.81
75938;BME280;64615;32.062;34.834;2024-03-07T07:46:39;101266.25;;;23.01;48.82
75938;BME280;64615;32.062;34.834;2024-03-07T07:49:06;101270.84;;;23.01;48.79
75938;BME280;64615;32.062;34.834;2024-03-07T07:51:32;101272.16;;;22.98;48.75
75938;BME280;64615;32.062;34.834;2024-03-07T07:53:57;101275.97;;;22.97;48.81
75938;BME280;64615;32.062;34.834;2024-03-07T07:56:23;101286.25;;;22.95;48.88
75938;BME280;64615;32.062;34.834;2024-03-07T07:58:50;101279.41;;;22.93;48.81
75938;BME280;64615;32.062;34.834;2024-03-07T08:01:17;101287.81;;;22.91;48.83
75938;BME280;64615;32.062;34.834;2024-03-07T08:03:44;101281.78;;;22.89;48.49
75938;BME280;64615;32.062;34.834;2024-03-07T08:06:10;101280.16;;;22.88;48.58
75938;BME280;64615;32.062;34.834;2024-03-07T08:08:35;101292.19;;;22.92;48.32
75938;BME280;64615;32.062;34.834;2024-03-07T08:11:01;101274.47;;;22.90;48.48
75938;BME280;64615;32.062;34.834;2024-03-07T08:13:27;101269.28;;;22.88;48.52
75938;BME280;64615;32.062;34.834;2024-03-07T08:15:53;101280.16;;;22.88;48.56
75938;BME280;64615;32.062;34.834;2024-03-07T08:18:21;101275.06;;;22.92;48.52
75938;BME280;64615;32.062;34.834;2024-03-07T08:20:47;101284.34;;;22.96;48.14
75938;BME280;64615;32.062;34.834;2024-03-07T08:23:12;101274.31;;;22.96;48.32
75938;BME280;64615;32.062;34.834;2024-03-07T08:25:39;101274.25;;;22.91;48.52
75938;BME280;64615;32.062;34.834;2024-03-07T08:28:06;101283.78;;;22.94;48.33
75938;BME280;64615;32.062;34.834;2024-03-07T08:30:32;101277.50;;;22.93;48.25
75938;BME280;64615;32.062;34.834;2024-03-07T08:32:58;101277.50;;;22.93;48.36
75938;BME280;64615;32.062;34.834;2024-03-07T08:35:30;101273.72;;;22.94;48.21
75938;BME280;64615;32.062;34.834;2024-03-07T08:37:56;101283.78;;;22.94;48.27
75938;BME280;64615;32.062;34.834;2024-03-07T08:40:27;101271.25;;;22.93;48.12
75938;BME280;64615;32.062;34.834;2024-03-07T08:42:56;101280.72;;;22.90;48.08
75938;BME280;64615;32.062;34.834;2024-03-07T08:45:28;101282.38;;;22.91;47.96
75938;BME280;64615;32.062;34.834;2024-03-07T08:47:56;101276.38;;;22.89;48.01
75938;BME280;64615;32.062;34.834;2024-03-07T08:50:23;101286.16;;;22.90;48.18
75938;BME280;64615;32.062;34.834;2024-03-07T08:55:24;101273.88;;;22.88;47.83
75938;BME280;64615;32.062;34.834;2024-03-07T08:57:51;101282.31;;;22.86;48.01
75938;BME280;64615;32.062;34.834;2024-03-07T09:00:17;101274.16;;;22.86;48.08
75938;BME280;64615;32.062;34.834;2024-03-07T09:02:56;101274.41;;;22.85;48.09
75938;BME280;64615;32.062;34.834;2024-03-07T09:05:25;101276.28;;;22.84;48.12
75938;BME280;64615;32.062;34.834;2024-03-07T09:07:54;101276.88;;;22.86;48.15
75938;BME280;64615;32.062;34.834;2024-03-07T09:10:20;101268.97;;;22.85;48.19
75938;BME280;64615;32.062;34.834;2024-03-07T09:12:47;101271.69;;;22.85;47.93
75938;BME280;64615;32.062;34.834;2024-03-07T09:15:15;101268.97;;;22.85;47.87
75938;BME280;64615;32.062;34.834;2024-03-07T09:17:46;101263.78;;;22.83;47.92
75938;BME280;64615;32.062;34.834;2024-03-07T09:20:14;101254.56;;;22.84;47.81
75938;BME280;64615;32.062;34.834;2024-03-07T09:22:43;101257.53;;;22.83;48.00
75938;BME280;64615;32.062;34.834;2024-03-07T09:25:10;101259.41;;;22.82;47.97
75938;BME280;64615;32.062;34.834;2024-03-07T09:27:36;101258.94;;;22.85;47.94
75938;BME280;64615;32.062;34.834;2024-03-07T09:30:04;101261.41;;;22.87;48.19
75938;BME280;64615;32.062;34.834;2024-03-07T09:32:29;101260.31;;;22.88;48.33
75938;BME280;64615;32.062;34.834;2024-03-07T09:34:58;101259.53;;;22.87;48.36
75938;BME280;64615;32.062;34.834;2024-03-07T09:37:24;101257.03;;;22.86;48.33
75938;BME280;64615;32.062;34.834;2024-03-07T09:39:49;101270.63;;;22.86;48.64
75938;BME280;64615;32.062;34.834;2024-03-07T09:42:17;101259.75;;;22.86;48.44
75938;BME280;64615;32.062;34.834;2024-03-07T09:44:43;101260.00;;;22.84;48.51
75938;BME280;64615;32.062;34.834;2024-03-07T09:47:13;101258.34;;;22.83;48.27
75938;BME280;64615;32.062;34.834;2024-03-07T09:49:39;101261.06;;;22.83;48.31
75938;BME280;64615;32.062;34.834;2024-03-07T09:52:06;101256.47;;;22.84;48.36
75938;BME280;64615;32.062;34.834;2024-03-07T09:54:39;101260.00;;;22.84;48.44
75938;BME280;64615;32.062;34.834;2024-03-07T09:57:06;101249.53;;;22.93;48.42
75938;BME280;64615;32.062;34.834;2024-03-07T09:59:35;101255.94;;;23.03;48.12
75938;BME280;64615;32.062;34.834;2024-03-07T10:02:03;101253.22;;;23.03;48.10
75938;BME280;64615;32.062;34.834;2024-03-07T10:04:43;101244.84;;;23.05;48.11
75938;BME280;64615;32.062;34.834;2024-03-07T10:07:16;101253.00;;;23.05;47.95
75938;BME280;64615;32.062;34.834;2024-03-07T10:09:42;101245.16;;;23.08;48.02
75938;BME280;64615;32.062;34.834;2024-03-07T10:12:09;101251.09;;;23.05;48.00
75938;BME280;64615;32.062;34.834;2024-03-07T10:14:58;101242.13;;;23.05;48.02
75938;BME280;64615;32.062;34.834;2024-03-07T10:17:27;101234.56;;;23.07;48.12
75938;BME280;64615;32.062;34.834;2024-03-07T10:19:53;101243.78;;;23.06;48.00
75938;BME280;64615;32.062;34.834;2024-03-07T10:22:20;101241.31;;;23.04;47.99
75938;BME280;64615;32.062;34.834;2024-03-07T10:24:56;101235.63;;;23.06;47.97
75938;BME280;64615;32.062;34.834;2024-03-07T10:27:22;101226.91;;;23.04;47.84
75938;BME280;64615;32.062;34.834;2024-03-07T10:29:48;101228.25;;;23.01;47.93
75938;BME280;64615;32.062;34.834;2024-03-07T10:32:22;101233.75;;;23.06;47.77
75938;BME280;64615;32.062;34.834;2024-03-07T10:34:52;101229.38;;;23.05;47.81
75938;BME280;64615;32.062;34.834;2024-03-07T10:37:18;101222.56;;;23.03;47.75
75938;BME280;64615;32.062;34.834;2024-03-07T10:39:46;101229.53;;;22.99;47.99
75938;BME280;64615;32.062;34.834;2024-03-07T10:42:14;101223.38;;;23.03;47.91
75938;BME280;64615;32.062;34.834;2024-03-07T10:44:46;101237.28;;;23.07;47.70
75938;BME280;64615;32.062;34.834;2024-03-07T10:47:16;101226.44;;;23.07;47.82
75938;BME280;64615;32.062;34.834;2024-03-07T10:50:07;101229.97;;;23.07;47.87
75938;BME280;64615;32.062;34.834;2024-03-07T10:52:48;101229.38;;;23.05;47.74
75938;BME280;64615;32.062;34.834;2024-03-07T10:55:28;101230.22;;;23.06;47.74
75938;BME280;64615;32.062;34.834;2024-03-07T10:58:46;101229.38;;;23.05;47.72
75938;BME280;64615;32.062;34.834;2024-03-07T11:01:17;101227.19;;;23.02;47.92
75938;BME280;64615;32.062;34.834;2024-03-07T11:03:45;101229.38;;;23.05;47.83
75938;BME280;64615;32.062;34.834;2024-03-07T11:06:13;101221.75;;;23.02;47.81
75938;BME280;64615;32.062;34.834;2024-03-07T11:08:40;101220.16;;;23.06;47.70
75938;BME280;64615;32.062;34.834;2024-03-07T11:11:07;101219.09;;;23.07;47.70
75938;BME280;64615;32.062;34.834;2024-03-07T11:13:33;101216.63;;;23.06;47.47
75938;BME280;64615;32.062;34.834;2024-03-07T11:16:00;101225.00;;;23.04;47.71
75938;BME280;64615;32.062;34.834;2024-03-07T11:18:26;101215.81;;;23.05;47.79
75938;BME280;64615;32.062;34.834;2024-03-07T11:20:52;101217.44;;;23.06;47.61
75938;BME280;64615;32.062;34.834;2024-03-07T11:23:26;101214.16;;;23.04;47.64
75938;BME280;64615;32.062;34.834;2024-03-07T11:26:05;101210.13;;;23.07;47.69
75938;BME280;64615;32.062;34.834;2024-03-07T11:28:36;101213.09;;;23.05;47.65
75938;BME280;64615;32.062;34.834;2024-03-07T11:34:17;101217.66;;;23.21;50.06
75938;BME280;64615;32.062;34.834;2024-03-07T11:36:48;101218.47;;;23.39;49.09
75938;BME280;64615;32.062;34.834;2024-03-07T11:39:49;101215.81;;;23.44;48.53
75938;BME280;64615;32.062;34.834;2024-03-07T11:42:28;101220.66;;;23.42;48.43
75938;BME280;64615;32.062;34.834;2024-03-07T11:44:55;101214.41;;;23.41;48.32
75938;BME280;64615;32.062;34.834;2024-03-07T11:47:22;101217.94;;;23.42;48.10
75938;BME280;64615;32.062;34.834;2024-03-07T11:49:52;101210.03;;;23.40;48.04
75938;BME280;64615;32.062;34.834;2024-03-07T11:52:19;101210.31;;;23.39;48.09
75938;BME280;64615;32.062;34.834;2024-03-07T11:54:45;101213.25;;;23.37;48.03
75938;BME280;64615;32.062;34.834;2024-03-07T11:57:17;101213.50;;;23.36;48.14
75938;BME280;64615;32.062;34.834;2024-03-07T11:59:45;101214.56;;;23.35;48.00
75938;BME280;64615;32.062;34.834;2024-03-07T12:02:14;101212.13;;;23.33;48.06
75938;BME280;64615;32.062;34.834;2024-03-07T12:04:46;101202.56;;;23.31;48.05
75938;BME280;64615;32.062;34.834;2024-03-07T12:07:12;101200.38;;;23.28;47.96
75938;BME280;64615;32.062;34.834;2024-03-07T12:09:43;101205.47;;;23.24;48.06
75938;BME280;64615;32.062;34.834;2024-03-07T12:12:16;101203.09;;;23.28;48.04
75938;BME280;64615;32.062;34.834;2024-03-07T12:14:43;101206.34;;;23.30;47.87
75938;BME280;64615;32.062;34.834;2024-03-07T12:17:09;101203.34;;;23.26;48.03
75938;BME280;64615;32.062;34.834;2024-03-07T12:19:35;101215.84;;;23.27;47.90
75938;BME280;64615;32.062;34.834;2024-03-07T12:22:07;101211.25;;;23.28;48.21
75938;BME280;64615;32.062;34.834;2024-03-07T12:24:41;101203.09;;;23.28;47.97
75938;BME280;64615;32.062;34.834;2024-03-07T12:27:11;101197.91;;;23.26;47.91
75938;BME280;64615;32.062;34.834;2024-03-07T12:29:42;101203.56;;;23.24;47.94
75938;BME280;64615;32.062;34.834;2024-03-07T12:32:12;101195.44;;;23.24;47.96
75938;BME280;64615;32.062;34.834;2024-03-07T12:34:43;101199.25;;;23.23;47.81
75938;BME280;64615;32.062;34.834;2024-03-07T12:37:12;101192.16;;;23.22;48.04
75938;BME280;64615;32.062;34.834;2024-03-07T12:39:43;101192.72;;;23.24;47.92
75938;BME280;64615;32.062;34.834;2024-03-07T12:42:20;101196.00;;;23.27;47.79
75938;BME280;64615;32.062;34.834;2024-03-07T12:44:46;101204.75;;;23.29;47.91
75938;BME280;64615;32.062;34.834;2024-03-07T12:47:15;101205.28;;;23.31;47.76
75938;BME280;64615;32.062;34.834;2024-03-07T12:49:42;101203.16;;;23.33;47.63